Time;durP1;ratioP1;P1;durP2;ratioP2;P2;SDS_P1;SDS_P2;PMS_P1;PMS_P2;Temp;Humidity;BMP_temperature;BMP_pressure;BME280_temperature;BME280_humidity;BME280_pressure;Samples;Min_cycle;Max_cycle;Signal;HPM_P1;HPM_P2
2023/12/04 00:00:07;;;;;;;19.67;9.60;;;4.10;64.60;;;;;;4978170;28;20447;-62
2023/12/04 00:02:33;;;;;;;16.65;8.50;;;4.00;64.80;;;;;;4978119;28;20044;-62
2023/12/04 00:04:59;;;;;;;16.15;8.45;;;4.10;65.50;;;;;;4978046;28;20034;-62
2023/12/04 00:07:25;;;;;;;18.60;8.35;;;4.10;65.90;;;;;;4978062;28;20087;-62
2023/12/04 00:09:51;;;;;;;18.42;8.98;;;4.20;65.80;;;;;;4977514;28;20023;-62
2023/12/04 00:12:17;;;;;;;16.27;8.88;;;4.20;65.80;;;;;;4978521;28;20033;-62
2023/12/04 00:14:43;;;;;;;17.10;8.75;;;4.20;65.70;;;;;;4977951;28;20038;-62
2023/12/04 00:17:09;;;;;;;19.25;9.38;;;4.20;65.90;;;;;;4977894;28;20086;-62
2023/12/04 00:19:36;;;;;;;20.15;9.77;;;4.20;65.80;;;;;;4977944;28;20023;-63
2023/12/04 00:22:02;;;;;;;25.75;12.05;;;4.20;65.60;;;;;;4978111;28;20026;-62
2023/12/04 00:24:28;;;;;;;20.17;10.30;;;4.20;65.60;;;;;;4977951;28;20102;-62
2023/12/04 00:26:54;;;;;;;22.05;11.32;;;4.20;65.70;;;;;;4977746;28;20113;-62
2023/12/04 00:29:20;;;;;;;18.33;9.25;;;4.20;65.80;;;;;;4977851;28;20043;-62
2023/12/04 00:31:47;;;;;;;18.60;9.43;;;4.20;65.90;;;;;;4977697;28;20027;-62
2023/12/04 00:34:13;;;;;;;19.63;8.95;;;4.20;65.90;;;;;;4977563;28;20023;-62
2023/12/04 00:36:39;;;;;;;20.63;10.88;;;4.20;66.10;;;;;;4977599;28;20038;-62
2023/12/04 00:39:05;;;;;;;21.90;9.75;;;4.10;66.00;;;;;;4977235;28;20047;-62
2023/12/04 00:41:31;;;;;;;18.17;8.98;;;4.10;66.00;;;;;;4977951;28;20037;-62
2023/12/04 00:43:57;;;;;;;18.73;9.73;;;4.10;66.00;;;;;;4977875;28;20037;-62
2023/12/04 00:46:23;;;;;;;17.60;9.05;;;4.00;66.00;;;;;;4977614;28;20113;-62
2023/12/04 00:48:50;;;;;;;17.83;8.98;;;3.90;66.10;;;;;;4977547;28;20463;-62
2023/12/04 00:51:16;;;;;;;16.92;9.10;;;3.90;66.10;;;;;;4977540;28;20308;-62
2023/12/04 00:53:42;;;;;;;17.40;9.50;;;3.90;66.40;;;;;;4977203;28;20019;-62
2023/12/04 00:56:09;;;;;;;15.32;8.55;;;3.80;66.50;;;;;;4977197;28;20030;-62
2023/12/04 00:58:35;;;;;;;16.52;9.27;;;3.80;66.70;;;;;;4977121;28;20061;-62
2023/12/04 01:01:01;;;;;;;17.15;10.07;;;3.70;66.60;;;;;;4977348;28;20026;-62
2023/12/04 01:03:27;;;;;;;17.17;9.05;;;3.70;66.50;;;;;;4977585;28;20019;-62
2023/12/04 01:05:53;;;;;;;20.20;9.93;;;3.70;66.80;;;;;;4977222;28;20027;-62
2023/12/04 01:08:19;;;;;;;18.70;9.75;;;3.70;66.90;;;;;;4977182;28;20019;-62
2023/12/04 01:10:45;;;;;;;19.05;10.00;;;3.60;66.80;;;;;;4977496;28;20029;-62
2023/12/04 01:13:11;;;;;;;17.92;9.27;;;3.60;67.00;;;;;;4976941;28;20023;-62
2023/12/04 01:15:38;;;;;;;17.27;8.93;;;3.60;67.20;;;;;;4976878;28;20035;-62
2023/12/04 01:18:04;;;;;;;17.95;9.52;;;3.60;67.10;;;;;;4976727;28;20055;-63
2023/12/04 01:20:33;;;;;;;17.50;9.45;;;3.60;66.80;;;;;;4976262;28;20022;-62
2023/12/04 01:22:59;;;;;;;19.10;10.93;;;3.60;66.90;;;;;;4976734;28;20026;-62
2023/12/04 01:25:25;;;;;;;18.38;9.80;;;3.50;66.90;;;;;;4976622;28;20027;-62
2023/12/04 01:27:51;;;;;;;20.17;10.02;;;3.50;66.90;;;;;;4976709;28;20056;-62
2023/12/04 01:30:17;;;;;;;19.52;10.30;;;3.40;67.10;;;;;;4977112;28;20420;-62
2023/12/04 01:32:43;;;;;;;16.63;9.00;;;3.40;67.20;;;;;;4976617;28;20404;-62
2023/12/04 01:35:09;;;;;;;17.52;9.75;;;3.40;67.30;;;;;;4976872;28;20027;-62
2023/12/04 01:37:36;;;;;;;15.52;8.82;;;3.40;67.20;;;;;;4976853;28;20355;-62
2023/12/04 01:40:06;;;;;;;17.67;9.82;;;3.40;67.50;;;;;;4976281;28;20062;-62
2023/12/04 01:42:32;;;;;;;16.95;9.77;;;3.40;67.40;;;;;;4976446;28;20031;-62
2023/12/04 01:44:58;;;;;;;16.00;9.02;;;3.40;67.40;;;;;;4976688;28;20035;-62
2023/12/04 01:47:25;;;;;;;16.00;9.00;;;3.40;67.50;;;;;;4976727;28;20352;-62
2023/12/04 01:49:51;;;;;;;16.80;9.35;;;3.30;67.30;;;;;;4976603;28;20355;-62
2023/12/04 01:52:18;;;;;;;16.92;9.98;;;3.30;67.60;;;;;;4976388;28;20026;-62
2023/12/04 01:54:44;;;;;;;16.83;9.88;;;3.20;67.50;;;;;;4976899;28;20030;-62
2023/12/04 01:57:11;;;;;;;19.08;10.40;;;3.10;67.60;;;;;;4976632;28;20059;-62
2023/12/04 01:59:37;;;;;;;15.85;8.73;;;3.00;67.60;;;;;;4976742;28;20035;-62
2023/12/04 02:02:03;;;;;;;18.88;9.75;;;2.90;67.80;;;;;;4976566;28;20031;-63
2023/12/04 02:04:31;;;;;;;18.35;9.52;;;2.90;67.90;;;;;;4976206;28;20448;-62
2023/12/04 02:06:58;;;;;;;16.15;8.48;;;2.80;67.90;;;;;;4976234;28;20333;-62
2023/12/04 02:09:25;;;;;;;17.52;8.90;;;2.80;68.00;;;;;;4976177;28;20019;-62
2023/12/04 02:11:52;;;;;;;15.27;8.32;;;2.80;68.40;;;;;;4976207;28;20026;-62
2023/12/04 02:14:19;;;;;;;18.80;9.18;;;2.90;68.10;;;;;;4976108;28;20035;-62
2023/12/04 02:16:46;;;;;;;16.10;8.57;;;2.90;67.90;;;;;;4976152;28;20034;-62
2023/12/04 02:19:12;;;;;;;14.52;8.18;;;2.90;67.70;;;;;;4959251;28;20030;-62
2023/12/04 02:21:39;;;;;;;13.45;7.95;;;2.90;67.50;;;;;;4976071;28;20035;-63
2023/12/04 02:24:05;;;;;;;14.82;8.18;;;2.90;67.30;;;;;;4976091;28;20038;-62
2023/12/04 02:27:02;;;;;;;16.20;8.75;;;2.90;67.30;;;;;;4976109;28;20050;-62
2023/12/04 02:29:37;;;;;;;14.57;7.68;;;3.00;67.40;;;;;;4965388;28;20039;-62
2023/12/04 02:32:06;;;;;;;16.17;8.02;;;3.00;67.40;;;;;;4977516;28;20054;-62
2023/12/04 02:34:33;;;;;;;14.20;7.63;;;2.90;67.10;;;;;;4980054;28;20031;-62
2023/12/04 02:37:00;;;;;;;14.40;8.18;;;3.00;67.00;;;;;;4979785;28;20467;-62
2023/12/04 02:39:27;;;;;;;13.32;7.43;;;3.00;67.00;;;;;;4979744;28;20081;-62
2023/12/04 02:41:53;;;;;;;14.50;7.78;;;3.00;66.90;;;;;;4979692;28;20027;-63
2023/12/04 02:44:19;;;;;;;15.27;6.97;;;3.00;67.10;;;;;;4962485;28;20456;-62
2023/12/04 02:46:45;;;;;;;13.60;6.93;;;2.90;67.00;;;;;;4979599;28;20130;-62
2023/12/04 02:49:11;;;;;;;15.23;7.45;;;3.00;67.20;;;;;;4979489;28;20019;-62
2023/12/04 02:51:41;;;;;;;12.85;7.25;;;3.00;67.60;;;;;;4980043;28;20026;-62
2023/12/04 02:54:08;;;;;;;13.23;7.30;;;3.10;67.50;;;;;;4962446;28;20054;-62
2023/12/04 02:56:34;;;;;;;14.73;7.70;;;3.10;67.40;;;;;;4979416;28;20357;-62
2023/12/04 02:59:00;;;;;;;14.52;7.47;;;3.10;67.90;;;;;;4979308;28;20102;-62
2023/12/04 03:01:26;;;;;;;14.60;7.60;;;3.10;67.80;;;;;;4979347;28;20057;-62
2023/12/04 03:03:52;;;;;;;14.63;7.57;;;3.10;67.80;;;;;;4979456;28;20027;-62
2023/12/04 03:06:18;;;;;;;14.95;6.75;;;3.10;67.70;;;;;;4979240;28;20027;-62
2023/12/04 03:08:44;;;;;;;13.98;6.95;;;3.10;67.50;;;;;;4962016;28;20544;-62
2023/12/04 03:11:10;;;;;;;13.80;6.78;;;3.10;67.40;;;;;;4979672;28;20026;-62
2023/12/04 03:13:36;;;;;;;14.05;7.40;;;3.00;67.50;;;;;;4979093;28;20101;-62
2023/12/04 03:16:03;;;;;;;13.13;7.20;;;3.00;67.60;;;;;;4979310;28;20067;-62
2023/12/04 03:18:29;;;;;;;13.10;7.00;;;2.90;67.60;;;;;;4979016;28;20041;-62
2023/12/04 03:20:55;;;;;;;14.43;7.80;;;2.90;67.70;;;;;;4978955;28;20086;-62
2023/12/04 03:23:21;;;;;;;13.48;7.05;;;2.90;67.90;;;;;;4979149;28;20045;-62
2023/12/04 03:25:48;;;;;;;13.63;7.38;;;2.90;67.90;;;;;;4979317;28;20027;-62
2023/12/04 03:28:15;;;;;;;14.32;6.53;;;2.90;67.60;;;;;;4978777;28;20030;-62
2023/12/04 03:30:45;;;;;;;14.35;6.53;;;2.90;67.50;;;;;;4979303;28;20023;-62
2023/12/04 03:33:11;;;;;;;14.05;6.25;;;2.90;67.60;;;;;;4979001;28;20054;-62
2023/12/04 03:35:37;;;;;;;9.70;5.38;;;2.90;67.80;;;;;;4979239;28;20026;-62
2023/12/04 03:38:03;;;;;;;12.68;6.22;;;2.90;67.50;;;;;;4978579;28;20039;-62
2023/12/04 03:40:29;;;;;;;10.65;5.80;;;2.90;67.40;;;;;;4978455;28;20054;-62
2023/12/04 03:42:55;;;;;;;11.13;5.93;;;2.90;67.40;;;;;;4978405;28;20031;-62
2023/12/04 03:45:21;;;;;;;11.10;5.70;;;2.90;67.50;;;;;;4978468;28;20347;-62
2023/12/04 03:47:47;;;;;;;10.15;5.30;;;2.90;67.40;;;;;;4978496;28;20070;-62
2023/12/04 03:50:13;;;;;;;10.38;6.20;;;2.90;67.50;;;;;;4978357;28;20101;-62
2023/12/04 03:52:39;;;;;;;9.75;5.45;;;2.90;67.40;;;;;;4978893;28;20027;-62
2023/12/04 03:55:06;;;;;;;10.15;5.82;;;2.90;67.50;;;;;;4978322;28;20022;-63
2023/12/04 03:57:32;;;;;;;11.00;6.03;;;2.90;67.50;;;;;;4978604;28;20034;-62
2023/12/04 03:59:58;;;;;;;11.40;6.10;;;2.90;67.60;;;;;;4978421;28;20023;-62
2023/12/04 04:02:24;;;;;;;11.27;6.20;;;2.90;67.50;;;;;;4978496;28;20404;-62
2023/12/04 04:04:50;;;;;;;10.70;5.82;;;2.90;67.20;;;;;;4978621;28;20035;-62
2023/12/04 04:07:17;;;;;;;12.13;5.57;;;2.90;67.30;;;;;;4978127;28;20047;-62
2023/12/04 04:09:44;;;;;;;11.90;5.97;;;2.90;67.60;;;;;;4978277;28;20343;-62
2023/12/04 04:12:10;;;;;;;11.27;5.78;;;2.90;67.80;;;;;;4978051;28;20083;-62
2023/12/04 04:14:36;;;;;;;12.52;5.53;;;2.80;67.80;;;;;;4978022;28;20030;-62
2023/12/04 04:17:02;;;;;;;11.63;5.63;;;2.90;67.80;;;;;;4978010;28;20019;-62
2023/12/04 04:19:29;;;;;;;15.27;7.68;;;2.90;67.80;;;;;;4977938;28;20030;-62
2023/12/04 04:21:55;;;;;;;12.13;6.07;;;2.90;67.90;;;;;;4978150;28;20419;-62
2023/12/04 04:24:21;;;;;;;14.23;7.65;;;2.80;67.40;;;;;;4977725;28;20031;-62
2023/12/04 04:26:47;;;;;;;14.20;7.50;;;2.80;67.30;;;;;;4978046;28;20038;-62
2023/12/04 04:29:14;;;;;;;13.10;8.90;;;2.80;67.90;;;;;;4977628;28;20069;-62
2023/12/04 04:31:40;;;;;;;12.68;7.60;;;2.80;67.80;;;;;;4977733;28;20056;-62
2023/12/04 04:34:06;;;;;;;13.80;7.45;;;2.80;67.90;;;;;;4977607;28;20174;-62
2023/12/04 04:36:31;;;;;;;14.70;8.10;;;2.80;67.90;;;;;;4977613;28;20507;-62
2023/12/04 04:38:57;;;;;;;15.43;8.40;;;2.80;67.80;;;;;;4977480;28;20070;-62
2023/12/04 04:41:23;;;;;;;11.52;6.28;;;2.80;67.80;;;;;;4978054;28;20158;-62
2023/12/04 04:43:49;;;;;;;10.88;6.07;;;2.90;67.80;;;;;;4977348;28;20053;-62
2023/12/04 04:46:15;;;;;;;11.48;6.40;;;2.90;67.80;;;;;;4977916;28;20428;-62
2023/12/04 04:48:41;;;;;;;16.63;9.82;;;2.90;67.40;;;;;;4977293;28;20531;-62
2023/12/04 04:51:08;;;;;;;19.45;9.80;;;2.80;67.50;;;;;;4977623;28;20019;-62
2023/12/04 04:53:34;;;;;;;15.07;7.75;;;2.90;67.90;;;;;;4977273;28;20451;-62
2023/12/04 04:56:00;;;;;;;13.50;7.90;;;2.90;68.10;;;;;;4977093;28;20077;-62
2023/12/04 04:58:26;;;;;;;11.55;6.50;;;2.90;68.00;;;;;;4977627;28;20396;-62
2023/12/04 05:00:52;;;;;;;11.25;5.55;;;2.80;68.00;;;;;;4977092;28;20023;-62
2023/12/04 05:03:18;;;;;;;10.93;6.50;;;2.80;68.00;;;;;;4977130;28;20042;-62
2023/12/04 05:05:45;;;;;;;12.25;6.43;;;2.80;68.10;;;;;;4977536;28;20026;-62
2023/12/04 05:08:10;;;;;;;12.80;6.85;;;2.70;68.00;;;;;;4976975;28;20033;-62
2023/12/04 05:10:39;;;;;;;14.00;7.22;;;2.80;68.00;;;;;;4977013;28;20046;-62
2023/12/04 05:13:05;;;;;;;11.10;5.90;;;2.70;68.30;;;;;;4977476;28;20022;-62
2023/12/04 05:15:31;;;;;;;10.65;6.15;;;2.80;68.30;;;;;;4976855;28;20027;-62
2023/12/04 05:17:57;;;;;;;12.32;6.45;;;2.80;68.50;;;;;;4976837;28;20026;-62
2023/12/04 05:20:24;;;;;;;12.18;6.00;;;2.80;68.40;;;;;;4976757;28;20030;-62
2023/12/04 05:22:50;;;;;;;13.10;6.63;;;2.80;68.40;;;;;;4977286;28;20042;-62
2023/12/04 05:25:16;;;;;;;11.82;6.25;;;2.80;68.20;;;;;;4976706;28;20026;-62
2023/12/04 05:27:43;;;;;;;12.38;6.22;;;2.80;68.30;;;;;;4976706;28;20019;-62
2023/12/04 05:30:09;;;;;;;11.32;5.43;;;2.80;68.40;;;;;;4976874;28;20023;-62
2023/12/04 05:32:35;;;;;;;14.18;5.97;;;2.80;68.50;;;;;;4977162;28;20349;-62
2023/12/04 05:35:02;;;;;;;12.05;6.00;;;2.80;68.40;;;;;;4976831;28;20078;-62
2023/12/04 05:37:28;;;;;;;11.50;5.93;;;2.80;68.20;;;;;;4976455;28;20070;-62
2023/12/04 05:39:55;;;;;;;9.75;5.35;;;2.70;68.20;;;;;;4976221;28;20058;-62
2023/12/04 05:42:21;;;;;;;12.40;5.55;;;2.70;68.20;;;;;;4977009;28;20040;-62
2023/12/04 05:44:47;;;;;;;11.90;6.05;;;2.70;68.20;;;;;;4976882;28;20175;-62
2023/12/04 05:47:14;;;;;;;10.38;6.03;;;2.70;68.20;;;;;;4976415;28;20034;-62
2023/12/04 05:49:41;;;;;;;12.00;6.43;;;2.70;68.20;;;;;;4976212;28;20027;-62
2023/12/04 05:52:07;;;;;;;14.90;6.55;;;2.60;68.00;;;;;;4959547;28;20055;-62
2023/12/04 05:54:33;;;;;;;11.57;6.28;;;2.60;67.80;;;;;;4976644;28;20444;-62
2023/12/04 05:56:59;;;;;;;12.65;6.90;;;2.50;67.80;;;;;;4976336;28;20031;-62
2023/12/04 05:59:25;;;;;;;12.25;5.88;;;2.50;68.10;;;;;;4976296;28;20042;-62
2023/12/04 06:01:52;;;;;;;14.75;6.63;;;2.40;68.50;;;;;;4976301;28;20097;-62
2023/12/04 06:04:17;;;;;;;14.23;6.57;;;2.40;68.60;;;;;;4976480;28;20038;-62
2023/12/04 06:06:44;;;;;;;12.60;6.53;;;2.50;68.60;;;;;;4977499;28;20026;-62
2023/12/04 06:09:10;;;;;;;13.70;7.10;;;2.40;68.60;;;;;;4980158;28;20068;-62
2023/12/04 06:11:36;;;;;;;14.23;6.60;;;2.40;68.70;;;;;;4980753;28;20030;-62
2023/12/04 06:14:02;;;;;;;16.27;7.50;;;2.40;68.90;;;;;;4980205;28;20090;-62
2023/12/04 06:16:29;;;;;;;13.77;6.95;;;2.40;69.00;;;;;;4980145;28;20031;-62
2023/12/04 06:18:55;;;;;;;12.32;6.40;;;2.40;69.10;;;;;;4979953;28;20359;-62
2023/12/04 06:21:21;;;;;;;13.15;6.30;;;2.40;69.10;;;;;;4980049;28;20019;-62
2023/12/04 06:23:48;;;;;;;16.67;7.40;;;2.40;69.00;;;;;;4979936;28;20034;-62
2023/12/04 06:26:15;;;;;;;13.35;6.90;;;2.40;69.00;;;;;;4980032;28;20440;-62
2023/12/04 06:28:41;;;;;;;14.90;7.07;;;2.40;69.20;;;;;;4980362;28;20056;-62
2023/12/04 06:31:09;;;;;;;15.70;7.38;;;2.40;68.70;;;;;;4979900;28;20106;-62
2023/12/04 06:33:35;;;;;;;13.77;6.78;;;2.30;69.00;;;;;;4980357;28;20105;-62
2023/12/04 06:36:02;;;;;;;13.50;6.80;;;2.40;69.30;;;;;;4980030;28;20069;-62
2023/12/04 06:38:34;;;;;;;12.68;6.43;;;2.40;69.30;;;;;;4979709;28;20038;-62
2023/12/04 06:41:02;;;;;;;16.75;7.90;;;2.40;69.10;;;;;;4979644;28;20053;-62
2023/12/04 06:43:28;;;;;;;15.23;7.65;;;2.30;69.30;;;;;;4979431;28;20217;-62
2023/12/04 06:45:58;;;;;;;18.45;9.25;;;2.40;69.60;;;;;;4979521;28;20027;-62
2023/12/04 06:51:00;;;;;;;20.65;9.30;;;2.40;69.90;;;;;;5323056;23;20113;-66
2023/12/04 06:53:26;;;;;;;21.70;10.63;;;2.40;70.10;;;;;;4960459;29;20050;-67
2023/12/04 06:55:52;;;;;;;24.20;11.20;;;2.40;70.10;;;;;;4960717;29;20348;-67
2023/12/04 06:58:18;;;;;;;31.25;13.00;;;2.50;70.20;;;;;;4960183;29;20024;-67
2023/12/04 07:00:44;;;;;;;32.78;14.45;;;2.50;70.30;;;;;;4960295;29;20042;-69
2023/12/04 07:03:09;;;;;;;27.38;14.02;;;2.50;70.30;;;;;;5217040;23;20022;-67
2023/12/04 07:05:35;;;;;;;19.98;11.13;;;2.50;70.40;;;;;;4936640;29;20048;-67
2023/12/04 07:08:02;;;;;;;19.42;10.35;;;2.50;70.20;;;;;;4921807;29;20039;-67
2023/12/04 07:10:28;;;;;;;18.13;9.27;;;2.60;70.30;;;;;;4921735;29;20036;-72
2023/12/04 07:12:54;;;;;;;15.95;9.25;;;2.60;70.40;;;;;;4921677;29;20036;-70
2023/12/04 07:15:20;;;;;;;16.23;8.90;;;2.60;70.60;;;;;;4940487;29;20445;-67
2023/12/04 07:17:46;;;;;;;24.33;10.05;;;2.60;70.70;;;;;;4940152;29;20027;-69
2023/12/04 07:20:15;;;;;;;20.80;10.05;;;2.70;70.40;;;;;;4940431;29;20119;-68
2023/12/04 07:22:41;;;;;;;25.88;11.05;;;2.70;70.30;;;;;;4940895;29;20323;-68
2023/12/04 07:25:08;;;;;;;22.27;11.90;;;2.80;70.40;;;;;;4940891;29;20095;-71
2023/12/04 07:27:35;;;;;;;22.75;12.23;;;2.80;70.60;;;;;;4940484;29;20016;-72
2023/12/04 07:30:01;;;;;;;27.42;14.27;;;2.80;70.50;;;;;;4940416;29;20028;-68
2023/12/04 07:32:26;;;;;;;31.75;14.40;;;2.90;70.40;;;;;;4940727;29;20023;-69
2023/12/04 07:34:52;;;;;;;28.20;14.93;;;2.90;70.10;;;;;;4940321;29;20040;-69
2023/12/04 07:37:19;;;;;;;26.63;14.55;;;3.00;70.10;;;;;;4940337;29;20031;-67
2023/12/04 07:39:47;;;;;;;29.30;14.20;;;3.00;70.20;;;;;;4940747;29;20107;-69
2023/12/04 07:42:15;;;;;;;24.02;12.90;;;3.10;70.20;;;;;;4940524;29;20035;-67
2023/12/04 07:44:41;;;;;;;22.60;12.75;;;3.10;70.40;;;;;;4940399;29;20039;-66
2023/12/04 07:47:07;;;;;;;21.33;12.32;;;3.20;70.40;;;;;;4972270;28;20026;-67
2023/12/04 07:49:34;;;;;;;23.85;11.73;;;3.20;70.70;;;;;;4978753;28;20105;-68
2023/12/04 07:52:00;;;;;;;25.10;13.32;;;3.30;70.50;;;;;;4978990;28;20023;-68
2023/12/04 07:54:51;;;;;;;27.35;14.65;;;3.20;69.90;;;;;;5523297;23;20027;31
2023/12/04 07:57:17;;;;;;;24.40;13.35;;;3.30;70.40;;;;;;5201083;23;20022;-69
2023/12/04 07:59:43;;;;;;;24.35;12.95;;;3.40;70.50;;;;;;4952599;29;20040;-67
2023/12/04 08:02:09;;;;;;;26.40;12.90;;;3.40;70.50;;;;;;4957676;29;20467;-70
2023/12/04 08:04:36;;;;;;;22.13;12.18;;;3.50;70.30;;;;;;4975735;28;20073;-69
2023/12/04 08:07:06;;;;;;;23.83;11.70;;;3.50;70.30;;;;;;4961135;28;20062;-72
2023/12/04 08:09:34;;;;;;;26.27;13.25;;;3.50;70.20;;;;;;4978407;28;20054;-69
2023/12/04 08:12:00;;;;;;;26.27;13.10;;;3.50;70.20;;;;;;4978625;28;20054;-70
2023/12/04 08:14:27;;;;;;;33.35;16.38;;;3.60;70.00;;;;;;4978581;28;20062;-70
2023/12/04 08:16:53;;;;;;;26.65;14.23;;;3.60;70.00;;;;;;5245515;23;20043;-65
2023/12/04 08:24:33;;;;;;;24.60;14.13;;;3.70;70.20;;;;;;5299115;23;20467;-61
2023/12/04 08:26:58;;;;;;;22.73;12.80;;;3.80;70.30;;;;;;4977705;28;20034;-67
2023/12/04 08:29:24;;;;;;;20.52;12.65;;;3.80;70.10;;;;;;4977220;28;20037;-66
2023/12/04 08:31:50;;;;;;;27.25;14.48;;;3.90;70.10;;;;;;4977441;28;20081;-68
2023/12/04 08:34:16;;;;;;;24.80;14.20;;;3.90;70.00;;;;;;4977382;28;20031;-71
2023/12/04 08:36:41;;;;;;;27.75;15.00;;;3.90;69.90;;;;;;4977427;28;20109;-69
2023/12/04 08:39:07;;;;;;;25.05;14.45;;;3.90;69.90;;;;;;4978012;28;20041;-66
2023/12/04 08:41:33;;;;;;;27.00;15.82;;;3.90;69.80;;;;;;4977306;28;20027;-67
2023/12/04 08:43:59;;;;;;;25.40;13.63;;;4.00;70.30;;;;;;4980451;28;20435;-69
2023/12/04 08:46:44;;;;;;;20.98;12.57;;;4.00;70.10;;;;;;5610061;23;20026;-71
2023/12/04 08:49:10;;;;;;;22.48;12.65;;;4.00;69.90;;;;;;4956396;29;20047;-67
2023/12/04 08:51:36;;;;;;;23.23;13.45;;;4.00;70.10;;;;;;4957917;29;20027;-68
2023/12/04 08:54:02;;;;;;;28.27;15.98;;;4.10;70.10;;;;;;4951473;29;20027;-67
2023/12/04 08:56:29;;;;;;;27.75;14.57;;;4.10;69.90;;;;;;4958004;28;20039;-66
2023/12/04 08:58:55;;;;;;;29.25;14.85;;;4.10;69.60;;;;;;4957830;29;20019;-65
2023/12/04 09:01:22;;;;;;;30.77;15.98;;;4.10;69.80;;;;;;4957842;29;20027;-65
2023/12/04 09:03:48;;;;;;;29.77;14.13;;;4.20;69.90;;;;;;4957677;29;20019;-65
2023/12/04 09:06:15;;;;;;;31.35;16.75;;;4.20;69.90;;;;;;4957795;29;20067;-67
2023/12/04 09:08:42;;;;;;;26.70;15.77;;;4.30;69.80;;;;;;4957612;29;20023;-66
2023/12/04 09:11:08;;;;;;;28.90;15.38;;;4.30;69.00;;;;;;4957843;29;20042;-67
2023/12/04 09:13:34;;;;;;;26.90;15.57;;;4.40;69.20;;;;;;5198016;23;20060;-67
2023/12/04 09:16:00;;;;;;;28.98;15.30;;;4.40;69.20;;;;;;4924544;29;20055;-68
2023/12/04 09:18:26;;;;;;;27.67;15.52;;;4.40;69.50;;;;;;4917625;29;20107;-67
2023/12/04 09:20:52;;;;;;;27.55;14.40;;;4.40;69.20;;;;;;4919715;29;20066;-67
2023/12/04 09:23:18;;;;;;;30.10;14.38;;;4.50;69.10;;;;;;4926425;29;20031;-68
2023/12/04 09:25:44;;;;;;;27.13;14.30;;;4.50;69.00;;;;;;4957468;29;20028;-68
2023/12/04 09:28:10;;;;;;;27.70;14.98;;;4.60;69.20;;;;;;4957493;29;20504;-68
2023/12/04 09:30:39;;;;;;;25.70;13.45;;;4.60;69.10;;;;;;4956323;29;20075;-68
2023/12/04 09:33:06;;;;;;;24.33;14.02;;;4.60;68.90;;;;;;4957110;28;20086;-68
2023/12/04 09:35:32;;;;;;;28.17;13.77;;;4.70;68.90;;;;;;4956795;29;20062;-69
2023/12/04 09:37:58;;;;;;;24.73;12.60;;;4.70;68.80;;;;;;4956691;29;20031;-67
2023/12/04 09:40:24;;;;;;;20.52;11.73;;;4.80;68.70;;;;;;4956031;29;20033;-68
2023/12/04 09:42:50;;;;;;;17.17;10.52;;;4.80;68.50;;;;;;4955840;28;20027;-68
2023/12/04 09:45:20;;;;;;;20.90;10.98;;;4.80;68.30;;;;;;4956600;29;20023;-68
2023/12/04 09:47:48;;;;;;;21.67;11.88;;;4.90;67.90;;;;;;4956586;29;20102;-68
2023/12/04 09:50:16;;;;;;;21.23;12.40;;;4.90;68.10;;;;;;4939616;29;20436;-69
2023/12/04 09:52:42;;;;;;;23.90;11.05;;;4.90;68.10;;;;;;4957147;28;20040;-67
2023/12/04 09:55:08;;;;;;;21.20;11.20;;;5.00;68.00;;;;;;4957032;29;20019;-67
2023/12/04 09:57:35;;;;;;;20.88;10.70;;;5.00;67.80;;;;;;4956896;29;20042;-67
2023/12/04 10:00:03;;;;;;;20.77;11.60;;;5.10;67.40;;;;;;4956016;29;20031;-67
2023/12/04 10:02:29;;;;;;;20.55;11.80;;;5.20;66.90;;;;;;4956838;28;20440;-69
2023/12/04 10:04:56;;;;;;;19.80;10.32;;;5.20;67.30;;;;;;4957114;29;20020;-69
2023/12/04 10:09:57;;;;;;;21.80;11.65;;;5.40;66.70;;;;;;5735885;23;20077;-73
2023/12/04 10:12:23;;;;;;;21.73;12.05;;;5.50;66.70;;;;;;4956947;29;20381;-69
2023/12/04 10:15:06;;;;;;;21.98;11.73;;;5.60;67.00;;;;;;4957033;29;20031;-70
2023/12/04 10:17:37;;;;;;;20.50;11.57;;;5.60;66.80;;;;;;4957008;29;20031;-70
2023/12/04 10:20:17;;;;;;;17.63;10.23;;;5.70;67.00;;;;;;4956859;29;20110;-70
2023/12/04 10:23:01;;;;;;;19.70;11.07;;;5.80;67.20;;;;;;4956928;29;20030;-72
2023/12/04 10:25:29;;;;;;;22.38;12.48;;;5.90;67.10;;;;;;4935171;29;20148;-72
2023/12/04 10:28:16;;;;;;;25.50;13.05;;;6.00;66.80;;;;;;4956943;29;20035;-72
2023/12/04 10:30:42;;;;;;;23.58;13.10;;;6.10;66.50;;;;;;4957022;29;20031;-70
2023/12/04 10:33:09;;;;;;;22.75;12.70;;;6.10;66.20;;;;;;4957426;29;20020;-72
2023/12/04 10:35:36;;;;;;;22.55;12.80;;;6.20;66.40;;;;;;4957104;29;20055;-72
2023/12/04 10:38:03;;;;;;;20.17;12.00;;;6.20;66.20;;;;;;4956867;29;20023;-70
2023/12/04 10:40:32;;;;;;;24.20;12.60;;;6.20;66.10;;;;;;4956799;29;20031;-70
2023/12/04 10:43:18;;;;;;;25.80;13.88;;;6.30;66.00;;;;;;4956393;29;20340;-70
2023/12/04 10:45:45;;;;;;;24.08;13.23;;;6.30;66.20;;;;;;4940096;29;20437;-72
2023/12/04 10:48:13;;;;;;;25.77;14.57;;;6.30;65.60;;;;;;4955370;29;20031;-71
2023/12/04 10:50:41;;;;;;;26.15;12.85;;;6.30;65.40;;;;;;4956582;29;20342;-72
2023/12/04 10:53:12;;;;;;;22.85;13.00;;;6.30;65.80;;;;;;4957789;28;20464;-72
2023/12/04 10:55:40;;;;;;;19.58;11.98;;;6.30;65.90;;;;;;4960001;29;20436;-70
2023/12/04 10:58:11;;;;;;;22.63;13.07;;;6.20;65.90;;;;;;4961438;29;20042;-70
2023/12/04 11:00:45;;;;;;;22.33;12.60;;;6.20;65.30;;;;;;4966214;29;20031;-71
2023/12/04 11:03:22;;;;;;;24.23;12.57;;;6.10;65.20;;;;;;4966611;29;20314;-70
2023/12/04 11:05:59;;;;;;;23.08;12.43;;;6.10;65.70;;;;;;4965918;29;20031;-70
2023/12/04 11:08:30;;;;;;;23.73;13.13;;;6.10;65.60;;;;;;4949319;29;20330;-69
2023/12/04 11:11:03;;;;;;;21.80;12.57;;;6.10;65.60;;;;;;4965943;28;20062;-70
2023/12/04 11:13:32;;;;;;;22.42;12.55;;;6.20;65.50;;;;;;4964038;29;20027;-70
2023/12/04 11:16:10;;;;;;;20.65;11.85;;;6.20;64.90;;;;;;4959867;29;20023;-70
2023/12/04 11:18:38;;;;;;;17.20;10.32;;;6.20;65.20;;;;;;4960077;29;20030;-70
2023/12/04 11:21:08;;;;;;;18.80;10.40;;;6.20;65.10;;;;;;4959910;29;20051;-70
2023/12/04 11:23:35;;;;;;;24.13;11.43;;;6.30;64.90;;;;;;4959726;29;20429;-70
2023/12/04 11:26:03;;;;;;;20.63;12.18;;;6.30;64.80;;;;;;4959617;29;20034;-69
2023/12/04 11:28:32;;;;;;;21.25;12.13;;;6.30;64.40;;;;;;4960470;29;20097;-69
2023/12/04 11:31:01;;;;;;;18.80;11.15;;;6.30;64.30;;;;;;4959478;29;20015;-71
2023/12/04 11:33:28;;;;;;;19.83;12.30;;;6.30;64.40;;;;;;4959508;29;20077;-70
2023/12/04 11:36:09;;;;;;;22.83;12.80;;;6.30;63.90;;;;;;4959779;29;20027;-71
2023/12/04 11:38:36;;;;;;;24.77;12.63;;;6.30;64.20;;;;;;4960137;29;20039;-70
2023/12/04 11:41:22;;;;;;;20.75;12.80;;;6.30;64.10;;;;;;4942515;29;20057;-70
2023/12/04 11:43:48;;;;;;;20.80;12.35;;;6.30;64.60;;;;;;4959938;29;20376;-71
2023/12/04 11:46:25;;;;;;;23.35;11.65;;;6.40;64.40;;;;;;4959811;29;20031;-71
2023/12/04 11:48:55;;;;;;;23.20;12.23;;;6.40;63.70;;;;;;4959305;29;20441;-71
2023/12/04 11:51:38;;;;;;;24.50;12.77;;;6.40;63.80;;;;;;4959354;29;20023;-71
2023/12/04 11:54:08;;;;;;;23.48;12.50;;;6.40;64.00;;;;;;4959297;29;20027;-71
2023/12/04 11:56:34;;;;;;;16.50;10.55;;;6.40;64.40;;;;;;4942317;29;20326;-71
2023/12/04 11:59:06;;;;;;;20.63;11.73;;;6.50;64.60;;;;;;4959399;29;20101;-71
2023/12/04 12:01:36;;;;;;;22.00;11.00;;;6.50;64.90;;;;;;4959293;29;20023;-71
2023/12/04 12:04:05;;;;;;;19.73;11.50;;;6.60;65.20;;;;;;4941727;28;20047;-71
2023/12/04 12:06:32;;;;;;;23.98;11.98;;;6.60;65.10;;;;;;4958717;29;20099;-71
2023/12/04 12:08:59;;;;;;;19.42;10.80;;;6.60;65.20;;;;;;4958750;29;20463;-71
2023/12/04 12:11:26;;;;;;;19.98;10.35;;;6.60;65.40;;;;;;4958756;29;20508;-71
2023/12/04 12:13:55;;;;;;;18.77;10.85;;;6.70;65.50;;;;;;4958846;29;20023;-70
2023/12/04 12:16:21;;;;;;;19.63;10.68;;;6.80;65.50;;;;;;4959481;29;20118;-70
2023/12/04 12:18:47;;;;;;;20.10;12.05;;;6.70;65.40;;;;;;4941804;29;20118;-70
2023/12/04 12:21:14;;;;;;;22.92;11.65;;;6.80;64.80;;;;;;4958875;29;20031;-70
2023/12/04 12:23:40;;;;;;;24.58;11.10;;;6.80;65.10;;;;;;4958649;29;20444;-70
2023/12/04 12:26:08;;;;;;;19.13;11.35;;;6.80;65.20;;;;;;4958461;29;20148;-70
2023/12/04 12:28:35;;;;;;;18.35;10.63;;;6.90;65.20;;;;;;4958737;29;20098;-70
2023/12/04 12:31:05;;;;;;;17.23;9.57;;;6.90;65.30;;;;;;4958564;29;20023;-70
2023/12/04 12:33:31;;;;;;;18.42;10.95;;;6.90;65.20;;;;;;4958481;29;20030;-71
2023/12/04 12:36:00;;;;;;;20.20;10.48;;;7.00;65.00;;;;;;4958435;29;20039;-72
2023/12/04 12:38:26;;;;;;;21.02;11.25;;;6.90;65.00;;;;;;4958306;29;20042;-73
2023/12/04 12:40:52;;;;;;;21.55;11.38;;;7.00;65.10;;;;;;4958533;29;20045;-73
2023/12/04 12:43:23;;;;;;;22.33;11.98;;;7.00;64.90;;;;;;4958347;29;20444;-72
2023/12/04 12:45:51;;;;;;;19.67;10.30;;;7.00;64.80;;;;;;4958103;29;20031;-73
2023/12/04 12:48:17;;;;;;;16.08;9.23;;;7.10;64.50;;;;;;4958514;29;20180;-73
2023/12/04 12:50:45;;;;;;;18.98;10.25;;;7.10;63.90;;;;;;4958096;29;20165;-73
2023/12/04 12:53:12;;;;;;;20.35;11.20;;;7.10;63.60;;;;;;4958385;29;20023;-74